createdAt,value
2019-01-28T00:02:55.738Z,9.43
2019-01-28T00:07:57.679Z,7.95
2019-01-28T00:12:59.713Z,7.22
2019-01-28T00:18:01.694Z,6.47
2019-01-28T00:23:03.908Z,5.40
2019-01-28T00:28:06.161Z,7.92
2019-01-28T00:33:08.300Z,6.85
2019-01-28T00:38:10.330Z,12.07
2019-01-28T00:43:12.459Z,7.97
2019-01-28T00:48:14.744Z,9.93
2019-01-28T00:53:17.142Z,6.10
2019-01-28T00:58:19.203Z,7.72
2019-01-28T01:03:21.440Z,7.75
2019-01-28T01:08:23.491Z,9.10
2019-01-28T01:13:25.490Z,6.45
2019-01-28T01:18:27.518Z,8.13
2019-01-28T01:23:29.606Z,12.68
2019-01-28T01:28:31.639Z,10.68
2019-01-28T01:33:33.708Z,10.95
2019-01-28T01:38:35.667Z,9.35
2019-01-28T01:43:38.038Z,7.65
2019-01-28T01:48:39.987Z,10.03
2019-01-28T01:53:42.073Z,12.35
2019-01-28T01:58:44.336Z,11.48
2019-01-28T02:03:46.348Z,9.35
2019-01-28T02:08:48.369Z,15.70
2019-01-28T02:13:50.382Z,11.65
2019-01-28T02:18:52.399Z,8.40
2019-01-28T02:23:54.429Z,9.73
2019-01-28T02:28:56.406Z,8.60
2019-01-28T02:33:58.404Z,8.75
2019-01-28T02:39:00.715Z,11.55
2019-01-28T02:44:02.943Z,10.03
2019-01-28T02:49:04.948Z,7.37
2019-01-28T02:54:07.091Z,8.90
2019-01-28T02:59:09.073Z,8.90
2019-01-28T03:04:11.126Z,7.08
2019-01-28T03:09:13.136Z,11.83
2019-01-28T03:14:15.185Z,10.65
2019-01-28T03:19:17.267Z,8.95
2019-01-28T03:24:19.376Z,7.42
2019-01-28T03:29:21.407Z,12.18
2019-01-28T03:34:23.398Z,5.87
2019-01-28T03:39:25.671Z,7.33
2019-01-28T03:44:27.674Z,7.10
2019-01-28T03:49:29.673Z,4.15
2019-01-28T03:54:31.700Z,7.25
2019-01-28T03:59:33.737Z,10.65
2019-01-28T04:04:35.756Z,5.85
2019-01-28T04:09:37.785Z,5.33
2019-01-28T04:14:39.810Z,3.80
2019-01-28T04:19:42.123Z,5.20
2019-01-28T04:24:44.136Z,4.03
2019-01-28T04:29:46.154Z,5.47
2019-01-28T04:34:48.148Z,4.70
2019-01-28T04:39:50.426Z,5.87
2019-01-28T04:44:52.418Z,4.80
2019-01-28T04:49:54.388Z,2.80
2019-01-28T04:54:56.398Z,5.72
2019-01-28T04:59:58.399Z,4.37
2019-01-28T05:05:00.412Z,3.42
2019-01-28T05:10:02.572Z,2.58
2019-01-28T05:15:05.159Z,2.30
2019-01-28T05:20:09.061Z,2.75
2019-01-28T05:25:12.185Z,2.40
2019-01-28T05:30:19.273Z,2.37
2019-01-28T05:35:21.984Z,2.20
2019-01-28T05:40:24.510Z,2.33
2019-01-28T05:45:26.552Z,3.67
2019-01-28T05:50:29.384Z,3.27
2019-01-28T05:55:31.570Z,2.17
2019-01-28T06:00:37.100Z,2.20
2019-01-28T06:05:39.386Z,1.70
2019-01-28T06:10:41.398Z,1.80
2019-01-28T06:15:43.692Z,2.58
2019-01-28T06:20:45.770Z,2.08
2019-01-28T06:25:47.835Z,2.50
2019-01-28T06:30:49.859Z,2.02
2019-01-28T06:35:51.851Z,2.47
2019-01-28T06:40:53.873Z,2.35
2019-01-28T06:45:55.934Z,2.85
2019-01-28T06:50:58.224Z,2.40
2019-01-28T06:56:00.603Z,2.60
2019-01-28T07:01:02.959Z,2.80
2019-01-28T07:06:04.984Z,2.92
2019-01-28T07:11:07.264Z,5.30
2019-01-28T07:16:09.574Z,5.03
2019-01-28T07:21:11.553Z,3.90
2019-01-28T07:26:13.677Z,4.65
2019-01-28T07:31:15.842Z,2.83
2019-01-28T07:36:17.877Z,4.35
2019-01-28T07:41:19.913Z,7.78
2019-01-28T07:46:22.200Z,4.95
2019-01-28T07:51:24.218Z,6.55
2019-01-28T07:56:26.209Z,3.30
2019-01-28T08:01:28.305Z,4.70
2019-01-28T08:06:32.448Z,5.05
2019-01-28T08:11:34.481Z,6.72
2019-01-28T08:16:36.498Z,5.78
2019-01-28T08:21:38.563Z,6.53
2019-01-28T08:26:40.562Z,6.45
2019-01-28T08:31:42.608Z,8.38
2019-01-28T08:36:44.602Z,5.95
2019-01-28T08:41:46.666Z,6.53
2019-01-28T08:46:48.694Z,3.20
2019-01-28T08:51:50.935Z,4.62
2019-01-28T08:56:52.984Z,7.90
2019-01-28T09:01:55.353Z,4.17
2019-01-28T09:06:57.604Z,3.72
2019-01-28T09:11:59.612Z,5.03
2019-01-28T09:17:01.645Z,4.78
2019-01-28T09:22:14.172Z,4.42
2019-01-28T09:27:16.152Z,4.42
2019-01-28T09:32:18.148Z,5.62
2019-01-28T09:37:20.190Z,6.50
2019-01-28T09:42:22.200Z,4.65
2019-01-28T09:47:24.198Z,6.80
2019-01-28T09:52:26.481Z,7.10
2019-01-28T09:57:28.638Z,9.18
2019-01-28T10:02:30.802Z,4.53
2019-01-28T10:07:32.844Z,9.43
2019-01-28T10:12:34.844Z,6.83
2019-01-28T10:17:36.918Z,6.67
2019-01-28T10:22:39.096Z,11.55
2019-01-28T10:27:41.563Z,5.12
2019-01-28T10:32:43.608Z,6.35
2019-01-28T10:37:45.642Z,5.22
2019-01-28T10:42:47.786Z,8.20
2019-01-28T10:47:50.110Z,5.60
2019-01-28T10:52:52.514Z,7.08
2019-01-28T10:57:54.693Z,9.28
2019-01-28T11:02:58.802Z,4.90
2019-01-28T11:08:01.112Z,10.58
2019-01-28T11:13:05.245Z,4.70
2019-01-28T11:18:11.160Z,6.47
2019-01-28T11:23:13.406Z,9.05
2019-01-28T11:28:15.618Z,6.08
2019-01-28T11:33:17.806Z,6.40
2019-01-28T11:38:20.717Z,6.45
2019-01-28T11:43:22.957Z,7.45
2019-01-28T11:48:25.214Z,5.78
2019-01-28T11:53:27.283Z,12.35
2019-01-28T11:58:29.360Z,4.45
2019-01-28T12:03:31.427Z,6.12
2019-01-28T12:08:33.505Z,9.48
2019-01-28T12:13:35.564Z,3.95
2019-01-28T12:18:37.603Z,6.83
2019-01-28T12:23:39.657Z,6.33
2019-01-28T12:28:41.633Z,6.45
2019-01-28T12:33:43.632Z,4.53
2019-01-28T12:38:45.635Z,4.90
2019-01-28T12:43:47.647Z,7.08
2019-01-28T12:48:49.699Z,5.42
2019-01-28T12:53:51.755Z,5.20
2019-01-28T12:58:54.115Z,7.10
2019-01-28T13:03:56.110Z,7.55
2019-01-28T13:08:58.178Z,6.10
2019-01-28T13:14:00.260Z,5.87
2019-01-28T13:19:02.674Z,4.90
2019-01-28T13:24:04.842Z,3.15
2019-01-28T13:29:06.891Z,4.28
2019-01-28T13:34:08.964Z,4.37
2019-01-28T13:39:10.977Z,6.58
2019-01-28T13:44:13.004Z,4.42
2019-01-28T13:49:15.019Z,3.67
2019-01-28T13:54:17.082Z,3.58
2019-01-28T13:59:19.074Z,3.52
2019-01-28T14:04:21.123Z,2.58
2019-01-28T14:09:23.133Z,2.35
2019-01-28T14:14:25.144Z,1.90
2019-01-28T14:19:27.239Z,2.42
2019-01-28T14:24:30.189Z,2.30
2019-01-28T14:29:32.504Z,2.85
2019-01-28T14:34:34.504Z,3.02
2019-01-28T14:39:36.546Z,2.72
2019-01-28T14:44:38.601Z,3.72
2019-01-28T14:49:40.605Z,2.75
2019-01-28T14:54:42.887Z,3.87
2019-01-28T14:59:44.900Z,5.80
2019-01-28T15:04:46.938Z,3.15
2019-01-28T15:09:49.853Z,2.60
2019-01-28T15:14:51.899Z,2.12
2019-01-28T15:19:53.893Z,2.58
2019-01-28T15:24:55.852Z,2.52
2019-01-28T15:29:57.915Z,2.55
2019-01-28T15:35:00.256Z,2.42
2019-01-28T15:40:02.417Z,2.52
2019-01-28T15:45:11.369Z,4.70
2019-01-28T15:50:11.929Z,3.70
2019-01-28T15:55:17.406Z,2.52
2019-01-28T16:00:22.181Z,2.27
2019-01-28T16:05:24.207Z,2.90
2019-01-28T16:10:26.206Z,2.30
2019-01-28T16:15:33.184Z,2.67
2019-01-28T16:20:38.599Z,2.42
2019-01-28T16:25:40.572Z,2.50
2019-01-28T16:30:42.574Z,2.47
2019-01-28T16:35:44.586Z,3.83
2019-01-28T16:40:46.591Z,4.15
2019-01-28T16:45:48.613Z,2.50
2019-01-28T16:50:50.852Z,3.47
2019-01-28T16:55:52.851Z,4.05
2019-01-28T17:00:54.887Z,4.87
2019-01-28T17:05:56.863Z,5.65
2019-01-28T17:10:58.942Z,4.35
2019-01-28T17:16:01.249Z,7.65
2019-01-28T17:21:03.539Z,4.87
2019-01-28T17:26:05.541Z,5.80
2019-01-28T17:31:07.689Z,6.25
2019-01-28T17:36:10.923Z,4.75
2019-01-28T17:41:13.446Z,8.68
2019-01-28T17:46:15.586Z,4.72
2019-01-28T17:51:19.386Z,4.37
2019-01-28T17:56:22.211Z,4.75
2019-01-28T18:01:24.234Z,5.67
2019-01-28T18:06:26.259Z,9.58
2019-01-28T18:11:28.268Z,5.62
2019-01-28T18:16:30.610Z,7.17
2019-01-28T18:21:32.689Z,9.00
2019-01-28T18:26:34.726Z,9.25
2019-01-28T18:31:36.923Z,11.55
2019-01-28T18:36:38.983Z,12.85
2019-01-28T18:41:41.460Z,9.30
2019-01-28T18:46:43.455Z,14.28
2019-01-28T18:51:45.552Z,18.98
2019-01-28T18:56:47.878Z,14.87
2019-01-28T19:01:49.898Z,14.60
2019-01-28T19:07:11.594Z,18.12
2019-01-28T19:12:27.756Z,13.90
2019-01-28T19:17:39.509Z,12.78
2019-01-28T19:22:42.604Z,10.25
2019-01-28T19:27:44.933Z,11.05
2019-01-28T19:32:47.193Z,11.73
2019-01-28T19:37:49.429Z,8.83
2019-01-28T19:42:51.608Z,9.08
2019-01-28T19:47:53.709Z,14.80
2019-01-28T19:52:56.060Z,12.25
2019-01-28T19:57:58.133Z,15.08
2019-01-28T20:03:05.137Z,11.93
2019-01-28T20:08:07.563Z,12.23
2019-01-28T20:13:10.343Z,10.53
2019-01-28T20:18:12.369Z,7.45
2019-01-28T20:23:14.496Z,8.18
2019-01-28T20:28:16.510Z,8.68
2019-01-28T20:33:18.693Z,6.70
2019-01-28T20:38:20.792Z,8.93
2019-01-28T20:43:24.051Z,11.97
2019-01-28T20:48:26.685Z,5.78
2019-01-28T20:53:29.403Z,7.50
2019-01-28T20:58:32.888Z,9.73
2019-01-28T21:03:37.458Z,8.90
2019-01-28T21:08:39.633Z,10.88
2019-01-28T21:13:42.280Z,9.50
2019-01-28T21:18:44.396Z,11.18
2019-01-28T21:23:47.054Z,11.28
2019-01-28T21:28:49.419Z,11.12
2019-01-28T21:33:51.585Z,12.58
2019-01-28T21:38:53.608Z,11.12
2019-01-28T21:43:55.647Z,13.28
2019-01-28T21:49:00.543Z,10.88
2019-01-28T21:54:04.055Z,9.78
2019-01-28T21:59:06.118Z,15.10
2019-01-28T22:04:08.234Z,14.93
2019-01-28T22:09:10.335Z,13.58
2019-01-28T22:14:12.352Z,8.73
2019-01-28T22:19:14.421Z,10.18
2019-01-28T22:24:16.679Z,12.70
2019-01-28T22:29:18.945Z,11.85
2019-01-28T22:34:21.245Z,19.77
2019-01-28T22:39:23.529Z,13.48
2019-01-28T22:44:25.510Z,10.65
2019-01-28T22:49:27.564Z,12.07
2019-01-28T22:54:29.628Z,11.00
2019-01-28T22:59:31.621Z,11.33
2019-01-28T23:04:33.845Z,10.85
2019-01-28T23:09:35.842Z,10.10
2019-01-28T23:14:37.851Z,10.18
2019-01-28T23:19:39.884Z,10.60
2019-01-28T23:24:41.899Z,12.13
2019-01-28T23:29:43.982Z,10.98
2019-01-28T23:34:45.998Z,10.70
2019-01-28T23:39:48.067Z,11.78
2019-01-28T23:44:50.358Z,11.63
2019-01-28T23:49:52.389Z,14.55
2019-01-28T23:54:54.670Z,13.40
2019-01-28T23:59:56.991Z,11.93
